createdAt,value
2022-09-15T00:00:54.797Z,4.82
2022-09-15T00:03:23.792Z,5.40
2022-09-15T00:05:53.566Z,6.03
2022-09-15T00:08:21.334Z,2.80
2022-09-15T00:10:52.451Z,3.45
2022-09-15T00:13:20.879Z,4.15
2022-09-15T00:15:48.750Z,3.58
2022-09-15T00:18:16.501Z,3.30
2022-09-15T00:20:45.965Z,4.28
2022-09-15T00:23:15.777Z,4.32
2022-09-15T00:25:45.714Z,3.67
2022-09-15T00:28:16.048Z,2.47
2022-09-15T00:30:45.001Z,3.13
2022-09-15T00:33:13.713Z,4.75
2022-09-15T00:35:44.350Z,2.80
2022-09-15T00:38:37.314Z,3.63
2022-09-15T00:41:06.598Z,3.47
2022-09-15T00:43:47.933Z,4.05
2022-09-15T00:46:18.250Z,3.10
2022-09-15T00:48:52.110Z,4.05
2022-09-15T00:51:24.108Z,5.80
2022-09-15T00:53:52.873Z,3.20
2022-09-15T00:56:22.296Z,3.00
2022-09-15T00:58:55.112Z,2.97
2022-09-15T01:01:26.724Z,3.20
2022-09-15T01:03:55.241Z,3.88
2022-09-15T01:06:28.695Z,3.67
2022-09-15T01:09:03.283Z,3.03
2022-09-15T01:11:31.680Z,2.00
2022-09-15T01:14:00.772Z,3.05
2022-09-15T01:16:34.210Z,2.85
2022-09-15T01:19:22.026Z,3.10
2022-09-15T01:21:58.110Z,2.42
2022-09-15T01:25:03.359Z,2.42
2022-09-15T01:28:26.947Z,2.90
2022-09-15T01:31:02.038Z,2.28
2022-09-15T01:33:35.347Z,7.30
2022-09-15T01:36:10.158Z,2.70
2022-09-15T01:38:48.238Z,3.42
2022-09-15T01:41:19.097Z,4.40
2022-09-15T01:43:53.568Z,2.50
2022-09-15T01:46:26.583Z,3.60
2022-09-15T01:48:56.830Z,3.85
2022-09-15T01:51:26.740Z,3.25
2022-09-15T01:53:55.744Z,2.25
2022-09-15T01:56:23.439Z,3.55
2022-09-15T01:58:52.321Z,2.45
2022-09-15T02:01:28.129Z,4.97
2022-09-15T02:04:01.106Z,2.45
2022-09-15T02:06:35.968Z,2.92
2022-09-15T02:09:08.741Z,4.88
2022-09-15T02:11:40.851Z,3.33
2022-09-15T02:14:17.173Z,4.30
2022-09-15T02:16:52.108Z,7.03
2022-09-15T02:19:23.339Z,4.65
2022-09-15T02:21:57.969Z,3.88
2022-09-15T02:24:37.673Z,6.90
2022-09-15T02:27:09.305Z,5.68
2022-09-15T02:29:38.077Z,2.63
2022-09-15T02:32:09.568Z,3.20
2022-09-15T02:34:43.020Z,3.92
2022-09-15T02:37:12.404Z,5.32
2022-09-15T02:39:44.678Z,3.50
2022-09-15T02:42:13.128Z,2.67
2022-09-15T02:44:41.307Z,4.45
2022-09-15T02:47:10.359Z,3.97
2022-09-15T02:49:37.999Z,4.25
2022-09-15T02:52:06.238Z,5.82
2022-09-15T02:54:34.027Z,3.88
2022-09-15T02:57:01.704Z,3.00
2022-09-15T02:59:50.535Z,5.65
2022-09-15T03:02:20.530Z,3.35
2022-09-15T03:04:48.655Z,4.75
2022-09-15T03:07:16.693Z,3.00
2022-09-15T03:09:44.379Z,2.78
2022-09-15T03:12:12.039Z,3.70
2022-09-15T03:14:39.703Z,3.47
2022-09-15T03:17:07.398Z,5.53
2022-09-15T03:19:36.550Z,2.95
2022-09-15T03:22:04.243Z,3.88
2022-09-15T03:24:31.899Z,5.05
2022-09-15T03:26:59.559Z,4.18
2022-09-15T03:29:27.384Z,2.83
2022-09-15T03:31:55.453Z,4.55
2022-09-15T03:34:23.161Z,3.17
2022-09-15T03:36:52.178Z,4.82
2022-09-15T03:39:19.861Z,2.17
2022-09-15T03:41:47.491Z,3.00
2022-09-15T03:44:15.271Z,3.40
2022-09-15T03:46:42.981Z,2.88
2022-09-15T03:49:10.700Z,3.22
2022-09-15T03:51:38.416Z,6.55
2022-09-15T03:54:07.535Z,4.07
2022-09-15T03:56:35.560Z,4.70
2022-09-15T03:59:05.592Z,2.83
2022-09-15T04:01:34.405Z,3.55
2022-09-15T04:04:02.585Z,3.50
2022-09-15T04:06:30.286Z,2.95
2022-09-15T04:09:00.157Z,4.60
2022-09-15T04:11:29.457Z,2.67
2022-09-15T04:13:57.138Z,3.90
2022-09-15T04:16:27.613Z,3.97
2022-09-15T04:18:56.203Z,1.52
2022-09-15T04:21:26.054Z,2.42
2022-09-15T04:23:54.781Z,2.65
2022-09-15T04:26:25.488Z,2.97
2022-09-15T04:28:54.537Z,3.95
2022-09-15T04:31:22.293Z,2.60
2022-09-15T04:33:54.209Z,1.55
2022-09-15T04:36:24.571Z,2.58
2022-09-15T04:38:52.726Z,2.83
2022-09-15T04:41:21.253Z,2.08
2022-09-15T04:43:49.493Z,1.50
2022-09-15T04:46:19.575Z,2.78
2022-09-15T04:48:48.771Z,4.72
2022-09-15T04:51:18.948Z,2.15
2022-09-15T04:53:47.499Z,2.40
2022-09-15T04:56:17.146Z,2.50
2022-09-15T04:58:46.333Z,2.22
2022-09-15T05:01:15.956Z,3.20
2022-09-15T05:03:46.426Z,1.42
2022-09-15T05:06:16.507Z,4.22
2022-09-15T05:08:47.567Z,4.13
2022-09-15T05:11:15.434Z,1.30
2022-09-15T05:13:43.211Z,3.25
2022-09-15T05:16:13.000Z,2.55
2022-09-15T05:18:41.447Z,1.90
2022-09-15T05:21:11.931Z,1.40
2022-09-15T05:23:40.294Z,2.75
2022-09-15T05:26:10.558Z,1.95
2022-09-15T05:28:38.795Z,3.17
2022-09-15T05:31:10.571Z,3.92
2022-09-15T05:33:38.496Z,3.38
2022-09-15T05:36:07.239Z,1.60
2022-09-15T05:38:36.757Z,2.25
2022-09-15T05:41:05.594Z,2.15
2022-09-15T05:43:34.603Z,2.05
2022-09-15T05:46:02.976Z,2.15
2022-09-15T05:48:31.108Z,4.13
2022-09-15T05:50:59.656Z,2.17
2022-09-15T05:53:27.719Z,1.40
2022-09-15T05:55:57.829Z,2.15
2022-09-15T05:58:25.979Z,2.30
2022-09-15T06:00:54.331Z,3.42
2022-09-15T06:03:27.506Z,3.13
2022-09-15T06:06:00.016Z,2.42
2022-09-15T06:08:31.544Z,2.25
2022-09-15T06:11:04.701Z,2.75
2022-09-15T06:13:32.974Z,4.82
2022-09-15T06:16:08.674Z,1.90
2022-09-15T06:18:37.926Z,1.92
2022-09-15T06:21:07.607Z,2.38
2022-09-15T06:23:35.711Z,1.92
2022-09-15T06:26:09.713Z,1.83
2022-09-15T06:28:37.868Z,1.50
2022-09-15T06:31:06.387Z,3.60
2022-09-15T06:33:34.129Z,1.17
2022-09-15T06:36:03.577Z,3.53
2022-09-15T06:38:31.315Z,2.00
2022-09-15T06:41:00.135Z,1.70
2022-09-15T06:43:31.527Z,1.42
2022-09-15T06:46:04.342Z,2.13
2022-09-15T06:48:33.177Z,2.22
2022-09-15T06:51:01.896Z,4.05
2022-09-15T06:53:31.066Z,2.88
2022-09-15T06:56:03.235Z,1.98
2022-09-15T06:58:32.405Z,1.83
2022-09-15T07:01:04.106Z,3.20
2022-09-15T07:03:32.410Z,6.28
2022-09-15T07:06:00.227Z,2.90
2022-09-15T07:08:27.956Z,2.03
2022-09-15T07:10:55.850Z,2.55
2022-09-15T07:13:23.785Z,3.85
2022-09-15T07:15:53.947Z,2.95
2022-09-15T07:18:21.780Z,2.47
2022-09-15T07:20:50.104Z,5.57
2022-09-15T07:23:18.174Z,2.63
2022-09-15T07:25:46.312Z,4.63
2022-09-15T07:28:14.561Z,4.85
2022-09-15T07:30:43.506Z,3.35
2022-09-15T07:33:14.084Z,5.93
2022-09-15T07:35:42.932Z,3.60
2022-09-15T07:38:11.475Z,2.38
2022-09-15T07:40:39.577Z,1.80
2022-09-15T07:43:07.712Z,2.58
2022-09-15T07:45:36.384Z,3.45
2022-09-15T07:48:04.316Z,3.47
2022-09-15T07:50:33.431Z,2.22
2022-09-15T07:53:01.140Z,2.80
2022-09-15T07:55:30.395Z,4.22
2022-09-15T07:57:59.325Z,4.45
2022-09-15T08:00:27.994Z,2.35
2022-09-15T08:02:56.581Z,1.63
2022-09-15T08:05:27.133Z,4.32
2022-09-15T08:07:56.636Z,4.22
2022-09-15T08:10:25.873Z,3.40
2022-09-15T08:12:54.050Z,4.00
2022-09-15T08:15:21.943Z,1.80
2022-09-15T08:17:49.642Z,2.33
2022-09-15T08:20:17.697Z,1.83
2022-09-15T08:22:46.326Z,1.55
2022-09-15T08:25:15.749Z,2.97
2022-09-15T08:27:43.413Z,4.05
2022-09-15T08:30:12.198Z,1.67
2022-09-15T08:32:39.893Z,3.63
2022-09-15T08:35:08.695Z,2.17
2022-09-15T08:37:36.378Z,1.50
2022-09-15T08:40:04.822Z,2.22
2022-09-15T08:42:34.555Z,2.80
2022-09-15T08:45:08.170Z,1.92
2022-09-15T08:47:39.581Z,2.85
2022-09-15T08:50:16.697Z,2.45
2022-09-15T08:52:50.207Z,1.50
2022-09-15T08:55:23.654Z,3.47
2022-09-15T08:57:55.443Z,4.97
2022-09-15T09:00:23.163Z,2.58
2022-09-15T09:03:29.525Z,2.17
2022-09-15T09:06:01.429Z,2.33
2022-09-15T09:08:58.299Z,2.10
2022-09-15T09:11:36.186Z,2.08
2022-09-15T09:14:17.811Z,2.85
2022-09-15T09:16:59.133Z,2.17
2022-09-15T09:19:52.740Z,5.00
2022-09-15T09:22:26.851Z,1.38
2022-09-15T09:24:59.228Z,2.17
2022-09-15T09:27:30.418Z,3.63
2022-09-15T09:30:03.903Z,2.53
2022-09-15T09:32:41.291Z,1.92
2022-09-15T09:35:19.882Z,1.77
2022-09-15T09:37:47.663Z,4.00
2022-09-15T09:40:16.851Z,3.13
2022-09-15T09:42:45.672Z,3.65
2022-09-15T09:45:16.592Z,2.28
2022-09-15T09:47:44.592Z,2.90
2022-09-15T09:50:34.764Z,2.40
2022-09-15T09:53:24.558Z,3.33
2022-09-15T09:55:53.237Z,2.95
2022-09-15T09:58:23.300Z,2.15
2022-09-15T10:00:53.651Z,1.92
2022-09-15T10:03:23.372Z,3.55
2022-09-15T10:06:06.288Z,2.67
2022-09-15T10:08:34.597Z,2.03
2022-09-15T10:11:07.695Z,2.20
2022-09-15T10:13:37.070Z,1.48
2022-09-15T10:16:07.685Z,3.55
2022-09-15T10:18:37.898Z,2.30
2022-09-15T10:21:08.807Z,1.55
2022-09-15T10:23:37.225Z,1.40
2022-09-15T10:26:32.925Z,2.55
2022-09-15T10:29:17.451Z,3.15
2022-09-15T10:31:47.348Z,3.33
2022-09-15T10:34:37.231Z,2.28
2022-09-15T10:37:15.274Z,1.90
2022-09-15T10:39:53.983Z,6.03
2022-09-15T10:42:41.932Z,2.42
2022-09-15T10:45:19.582Z,1.38
2022-09-15T10:48:13.059Z,4.07
2022-09-15T10:50:51.735Z,2.72
2022-09-15T10:53:30.092Z,1.38
2022-09-15T10:56:04.712Z,2.65
2022-09-15T10:58:47.577Z,2.30
2022-09-15T11:01:33.214Z,2.53
2022-09-15T11:04:19.650Z,1.65
2022-09-15T11:06:54.605Z,2.55
2022-09-15T11:09:25.778Z,1.88
2022-09-15T11:12:12.019Z,1.15
2022-09-15T11:14:55.768Z,3.22
2022-09-15T11:17:43.101Z,1.38
2022-09-15T11:20:29.462Z,3.33
2022-09-15T11:23:04.330Z,2.03
2022-09-15T11:25:35.599Z,1.08
2022-09-15T11:28:11.054Z,1.10
2022-09-15T11:30:47.017Z,1.85
2022-09-15T11:33:22.118Z,3.10
2022-09-15T11:35:57.508Z,4.15
2022-09-15T11:38:36.993Z,1.95
2022-09-15T11:41:18.731Z,1.65
2022-09-15T11:43:56.515Z,2.30
2022-09-15T11:46:35.727Z,1.60
2022-09-15T11:49:10.156Z,2.10
2022-09-15T11:51:44.045Z,1.55
2022-09-15T11:54:16.948Z,4.20
2022-09-15T11:56:47.648Z,3.25
2022-09-15T11:59:25.865Z,2.22
2022-09-15T12:02:00.383Z,3.33
2022-09-15T12:04:32.432Z,3.00
2022-09-15T12:07:09.841Z,1.52
2022-09-15T12:09:40.475Z,5.05
2022-09-15T12:12:13.964Z,4.00
2022-09-15T12:14:45.074Z,2.08
2022-09-15T12:17:19.959Z,1.85
2022-09-15T12:20:00.081Z,1.45
2022-09-15T12:22:35.775Z,2.70
2022-09-15T12:25:10.309Z,2.47
2022-09-15T12:27:38.133Z,2.08
2022-09-15T12:30:06.791Z,1.13
2022-09-15T12:32:35.162Z,0.70
2022-09-15T12:35:13.382Z,1.67
2022-09-15T12:37:46.738Z,0.95
2022-09-15T12:40:35.049Z,1.13
2022-09-15T12:43:07.063Z,2.47
2022-09-15T12:45:36.914Z,1.23
2022-09-15T12:48:08.355Z,1.67
2022-09-15T12:50:39.314Z,2.15
2022-09-15T12:53:20.217Z,3.63
2022-09-15T12:55:51.108Z,0.75
2022-09-15T12:58:26.221Z,1.00
2022-09-15T13:01:31.437Z,2.88
2022-09-15T13:04:26.914Z,1.65
2022-09-15T13:07:23.673Z,2.10
2022-09-15T13:10:00.563Z,2.63
2022-09-15T13:12:34.937Z,1.55
2022-09-15T13:15:04.924Z,0.70
2022-09-15T13:17:34.576Z,2.38
2022-09-15T13:20:15.449Z,0.85
2022-09-15T13:22:48.418Z,0.93
2022-09-15T13:25:22.774Z,0.93
2022-09-15T13:27:54.688Z,1.40
2022-09-15T13:30:36.761Z,1.58
2022-09-15T13:33:19.752Z,1.02
2022-09-15T13:36:04.700Z,2.15
2022-09-15T13:39:06.036Z,2.22
2022-09-15T13:42:13.633Z,3.35
2022-09-15T13:45:01.137Z,1.08
2022-09-15T13:47:40.104Z,2.70
2022-09-15T13:50:15.892Z,3.80
2022-09-15T13:52:57.776Z,1.20
2022-09-15T13:55:28.035Z,2.15
2022-09-15T14:00:55.342Z,2.08
2022-09-15T14:03:28.130Z,2.83
2022-09-15T14:05:57.126Z,1.85
2022-09-15T14:08:32.253Z,3.17
2022-09-15T14:11:04.285Z,2.55
2022-09-15T14:13:34.740Z,3.60
2022-09-15T14:16:08.047Z,5.13
2022-09-15T14:18:43.944Z,3.42
2022-09-15T14:21:18.735Z,1.30
2022-09-15T14:23:47.964Z,0.85
2022-09-15T14:26:18.292Z,3.50
2022-09-15T14:28:52.802Z,1.13
2022-09-15T14:31:28.914Z,4.00
2022-09-15T14:33:56.984Z,3.25
2022-09-15T14:36:28.301Z,1.63
2022-09-15T14:39:08.687Z,2.63
2022-09-15T14:41:37.411Z,1.67
2022-09-15T14:47:12.811Z,2.30
2022-09-15T14:49:40.888Z,3.40
2022-09-15T14:52:24.091Z,3.38
2022-09-15T14:54:56.215Z,2.75
2022-09-15T14:57:31.101Z,2.65
2022-09-15T15:00:04.163Z,2.40
2022-09-15T15:02:47.308Z,2.15
2022-09-15T15:05:20.444Z,2.90
2022-09-15T15:07:50.012Z,1.48
2022-09-15T15:10:22.751Z,2.28
2022-09-15T15:12:53.367Z,3.30
2022-09-15T15:15:22.689Z,2.45
2022-09-15T15:17:54.511Z,2.55
2022-09-15T15:20:25.049Z,1.90
2022-09-15T15:23:13.758Z,3.80
2022-09-15T15:25:42.481Z,2.08
2022-09-15T15:28:30.628Z,2.65
2022-09-15T15:31:15.376Z,2.40
2022-09-15T15:33:53.259Z,1.70
2022-09-15T15:36:23.853Z,3.20
2022-09-15T15:38:54.761Z,2.38
2022-09-15T15:41:25.160Z,2.92
2022-09-15T15:44:03.322Z,4.70
2022-09-15T15:46:54.410Z,2.50
2022-09-15T15:49:27.333Z,3.83
2022-09-15T15:51:55.954Z,4.63
2022-09-15T15:54:23.995Z,4.00
2022-09-15T15:56:52.314Z,4.57
2022-09-15T15:59:20.350Z,3.85
2022-09-15T16:01:52.842Z,4.15
2022-09-15T16:04:20.835Z,3.08
2022-09-15T16:06:48.923Z,3.75
2022-09-15T16:09:18.679Z,6.75
2022-09-15T16:11:46.530Z,4.05
2022-09-15T16:14:14.629Z,2.67
2022-09-15T16:16:42.418Z,5.32
2022-09-15T16:19:12.051Z,3.05
2022-09-15T16:21:42.384Z,2.88
2022-09-15T16:24:14.789Z,4.47
2022-09-15T16:26:43.205Z,4.60
2022-09-15T16:29:11.115Z,3.00
2022-09-15T16:31:39.296Z,7.47
2022-09-15T16:34:07.067Z,3.63
2022-09-15T16:36:36.708Z,5.47
2022-09-15T16:39:05.001Z,5.13
2022-09-15T16:41:38.496Z,4.50
2022-09-15T16:44:14.942Z,6.75
2022-09-15T16:46:42.677Z,3.90
2022-09-15T16:49:10.409Z,4.45
2022-09-15T16:51:39.439Z,5.05
2022-09-15T16:54:15.298Z,7.50
2022-09-15T16:56:43.314Z,7.85
2022-09-15T16:59:11.144Z,5.13
2022-09-15T17:01:38.986Z,5.85
2022-09-15T17:04:12.568Z,5.40
2022-09-15T17:06:41.700Z,7.65
2022-09-15T17:09:09.954Z,6.30
2022-09-15T17:11:38.083Z,11.38
2022-09-15T17:14:06.236Z,10.20
2022-09-15T17:16:34.205Z,8.75
2022-09-15T17:19:02.073Z,12.18
2022-09-15T17:21:29.784Z,9.20
2022-09-15T17:23:58.807Z,10.55
2022-09-15T17:26:30.449Z,9.27
2022-09-15T17:28:58.890Z,12.80
2022-09-15T17:31:27.837Z,13.13
2022-09-15T17:33:55.561Z,12.48
2022-09-15T17:36:23.300Z,12.40
2022-09-15T17:38:50.964Z,15.45
2022-09-15T17:41:22.371Z,13.95
2022-09-15T17:43:50.798Z,10.50
2022-09-15T17:46:18.597Z,10.25
2022-09-15T17:48:46.265Z,14.90
2022-09-15T17:51:17.069Z,10.15
2022-09-15T17:53:45.874Z,14.50
2022-09-15T17:56:13.664Z,14.80
2022-09-15T17:58:43.110Z,10.98
2022-09-15T18:01:13.533Z,11.52
2022-09-15T18:03:44.043Z,12.98
2022-09-15T18:06:11.899Z,9.75
2022-09-15T18:08:39.695Z,11.02
2022-09-15T18:11:08.445Z,14.05
2022-09-15T18:13:37.892Z,12.30
2022-09-15T18:16:11.962Z,13.32
2022-09-15T18:18:40.607Z,14.25
2022-09-15T18:21:11.751Z,12.50
2022-09-15T18:23:42.302Z,12.95
2022-09-15T18:26:10.042Z,10.82
2022-09-15T18:28:37.764Z,11.73
2022-09-15T18:31:07.599Z,13.65
2022-09-15T18:33:35.392Z,13.82
2022-09-15T18:36:06.907Z,9.90
2022-09-15T18:38:34.875Z,13.55
2022-09-15T18:41:04.465Z,11.68
2022-09-15T18:43:32.191Z,11.35
2022-09-15T18:46:00.706Z,12.23
2022-09-15T18:48:30.365Z,8.60
2022-09-15T18:50:58.222Z,10.57
2022-09-15T18:53:26.220Z,13.95
2022-09-15T18:55:53.940Z,11.20
2022-09-15T18:58:22.456Z,13.02
2022-09-15T19:00:50.165Z,14.38
2022-09-15T19:03:18.187Z,14.70
2022-09-15T19:05:47.230Z,10.70
2022-09-15T19:08:15.542Z,10.48
2022-09-15T19:10:44.239Z,13.93
2022-09-15T19:13:14.085Z,14.50
2022-09-15T19:15:43.730Z,11.40
2022-09-15T19:18:11.638Z,13.15
2022-09-15T19:20:40.197Z,16.05
2022-09-15T19:23:10.522Z,13.60
2022-09-15T19:25:38.511Z,12.98
2022-09-15T19:28:06.221Z,11.77
2022-09-15T19:30:34.234Z,10.15
2022-09-15T19:33:02.893Z,14.75
2022-09-15T19:35:30.813Z,10.07
2022-09-15T19:37:58.553Z,12.65
2022-09-15T19:40:27.748Z,11.10
2022-09-15T19:42:55.490Z,12.20
2022-09-15T19:45:23.205Z,10.73
2022-09-15T19:47:50.944Z,13.27
2022-09-15T19:50:19.008Z,10.65
2022-09-15T19:52:46.745Z,14.18
2022-09-15T19:55:14.629Z,10.73
2022-09-15T19:57:43.876Z,11.07
2022-09-15T20:00:14.345Z,11.52
2022-09-15T20:02:42.238Z,8.80
2022-09-15T20:05:10.438Z,9.60
2022-09-15T20:07:38.155Z,10.13
2022-09-15T20:10:06.786Z,10.13
2022-09-15T20:12:34.480Z,13.45
2022-09-15T20:15:03.634Z,23.90
2022-09-15T20:17:31.378Z,26.75
2022-09-15T20:19:59.228Z,9.43
2022-09-15T20:22:27.420Z,10.23
2022-09-15T20:24:56.097Z,8.88
2022-09-15T20:27:23.873Z,9.68
2022-09-15T20:29:51.571Z,9.27
2022-09-15T20:32:24.957Z,12.05
2022-09-15T20:34:56.156Z,9.52
2022-09-15T20:37:23.858Z,9.10
2022-09-15T20:39:51.915Z,9.48
2022-09-15T20:42:19.736Z,8.38
2022-09-15T20:44:47.508Z,9.82
2022-09-15T20:47:15.912Z,9.82
2022-09-15T20:49:44.990Z,10.38
2022-09-15T20:52:12.676Z,9.88
2022-09-15T20:54:40.590Z,9.23
2022-09-15T20:57:09.393Z,9.48
2022-09-15T20:59:37.841Z,9.48
2022-09-15T21:02:10.395Z,9.02
2022-09-15T21:04:38.178Z,8.10
2022-09-15T21:07:07.417Z,9.80
2022-09-15T21:09:35.110Z,9.57
2022-09-15T21:12:06.093Z,12.18
2022-09-15T21:14:33.736Z,10.10
2022-09-15T21:17:01.433Z,12.13
2022-09-15T21:19:29.136Z,12.60
2022-09-15T21:21:58.224Z,18.88
2022-09-15T21:24:27.275Z,11.20
2022-09-15T21:27:12.336Z,11.02
2022-09-15T21:29:40.023Z,12.30
2022-09-15T21:32:07.832Z,13.15
2022-09-15T21:34:35.576Z,9.63
2022-09-15T21:37:03.309Z,9.45
2022-09-15T21:39:32.369Z,12.88
2022-09-15T21:42:00.108Z,10.50
2022-09-15T21:44:27.833Z,11.27
2022-09-15T21:46:55.522Z,11.80
2022-09-15T21:49:23.268Z,11.35
2022-09-15T21:51:50.957Z,11.70
2022-09-15T21:54:18.762Z,11.40
2022-09-15T21:56:47.804Z,8.48
2022-09-15T21:59:16.751Z,9.70
2022-09-15T22:01:44.505Z,9.40
2022-09-15T22:04:12.272Z,8.68
2022-09-15T22:06:41.530Z,12.27
2022-09-15T22:09:11.559Z,9.55
2022-09-15T22:11:39.291Z,11.10
2022-09-15T22:14:09.434Z,10.77
2022-09-15T22:16:38.696Z,10.85
2022-09-15T22:19:08.020Z,11.88
2022-09-15T22:21:36.908Z,8.93
2022-09-15T22:24:07.007Z,12.60
2022-09-15T22:26:36.896Z,10.48
2022-09-15T22:29:05.303Z,10.45
2022-09-15T22:31:34.791Z,11.25
2022-09-15T22:34:02.716Z,11.10
2022-09-15T22:39:17.483Z,9.05
2022-09-15T22:41:45.244Z,13.10
2022-09-15T22:44:19.899Z,9.07
2022-09-15T22:46:51.306Z,10.97
2022-09-15T22:49:19.043Z,13.90
2022-09-15T22:51:46.794Z,9.52
2022-09-15T22:54:14.677Z,9.95
2022-09-15T22:56:42.386Z,12.02
2022-09-15T22:59:10.159Z,9.32
2022-09-15T23:08:31.096Z,10.60
2022-09-15T23:11:03.073Z,11.55
2022-09-15T23:13:30.838Z,11.80
2022-09-15T23:15:58.840Z,10.70
2022-09-15T23:18:27.306Z,13.18
2022-09-15T23:21:21.233Z,10.40
2022-09-15T23:23:49.560Z,12.30
2022-09-15T23:26:19.477Z,13.50
2022-09-15T23:28:49.156Z,11.05
2022-09-15T23:31:17.416Z,9.95
2022-09-15T23:33:45.513Z,13.40
2022-09-15T23:36:15.924Z,9.88
2022-09-15T23:38:46.417Z,11.15
2022-09-15T23:41:15.828Z,10.57
2022-09-15T23:43:43.636Z,13.00
2022-09-15T23:46:11.634Z,9.90
2022-09-15T23:48:39.462Z,9.38
2022-09-15T23:51:07.688Z,11.93
2022-09-15T23:53:36.354Z,11.68
2022-09-15T23:56:05.965Z,15.07
2022-09-15T23:58:33.761Z,10.60
